Time;durP1;ratioP1;P1;durP2;ratioP2;P2;SDS_P1;SDS_P2;PMS_P1;PMS_P2;Temp;Humidity;BMP_temperature;BMP_pressure;BME280_temperature;BME280_humidity;BME280_pressure;Samples;Min_cycle;Max_cycle;Signal;HPM_P1;HPM_P2
2023/01/25 00:01:46;;;;;;;4.23;3.73;;;;;;;0.07;100.00;102589.88;4916145;29;20035;-73
2023/01/25 00:04:12;;;;;;;5.60;3.90;;;;;;;0.01;100.00;102571.75;4899266;29;20039;-73
2023/01/25 00:06:37;;;;;;;4.77;4.37;;;;;;;0.00;100.00;102572.66;4916243;29;20523;-74
2023/01/25 00:09:03;;;;;;;5.83;4.20;;;;;;;0.00;100.00;102556.94;4916070;29;20156;-74
2023/01/25 00:11:29;;;;;;;4.70;4.10;;;;;;;0.05;100.00;102578.59;4916039;29;20341;-74
2023/01/25 00:13:55;;;;;;;4.67;4.13;;;;;;;0.06;100.00;102556.72;4917374;29;20268;-73
2023/01/25 00:16:23;;;;;;;3.90;3.57;;;;;;;0.05;100.00;102560.25;4916555;29;20060;-72
2023/01/25 00:18:49;;;;;;;5.17;3.90;;;;;;;-0.04;100.00;102550.06;4916023;29;20032;-73
2023/01/25 00:21:19;;;;;;;4.40;3.60;;;;;;;0.02;100.00;102557.75;4916110;29;20273;-73
2023/01/25 00:23:45;;;;;;;4.33;3.87;;;;;;;0.04;100.00;102542.81;4915920;29;20882;-73
2023/01/25 00:26:10;;;;;;;4.60;3.60;;;;;;;0.03;100.00;102545.50;4915848;29;20316;-72
2023/01/25 00:28:36;;;;;;;3.87;3.33;;;;;;;0.00;100.00;102535.97;4918544;29;20115;-73
2023/01/25 00:31:04;;;;;;;4.83;4.07;;;;;;;-0.01;100.00;102529.00;4919960;29;20032;-72
2023/01/25 00:34:23;;;;;;;5.07;3.83;;;;;;;0.05;100.00;102518.34;4919572;29;20124;-73
2023/01/25 00:36:56;;;;;;;5.60;4.00;;;;;;;-0.01;100.00;102515.91;4861282;29;20507;-72
2023/01/25 00:39:21;;;;;;;5.77;4.57;;;;;;;-0.03;100.00;102515.09;4861612;29;20313;-73
2023/01/25 00:41:47;;;;;;;4.90;4.00;;;;;;;-0.05;100.00;102511.69;4897315;29;20768;-72
2023/01/25 00:44:12;;;;;;;5.00;4.50;;;;;;;-0.03;100.00;102509.88;4920463;29;20048;-73
2023/01/25 00:46:38;;;;;;;6.40;4.53;;;;;;;-0.06;100.00;102507.34;4920135;29;20040;-73
2023/01/25 00:49:04;;;;;;;5.80;4.33;;;;;;;-0.01;100.00;102515.91;4920154;29;20107;-73
2023/01/25 00:51:29;;;;;;;6.10;4.87;;;;;;;0.01;100.00;102526.34;4920064;29;20728;-72
2023/01/25 00:53:55;;;;;;;8.00;5.80;;;;;;;-0.05;100.00;102528.25;4920155;29;20035;-74
2023/01/25 00:56:20;;;;;;;9.47;6.37;;;;;;;-0.02;100.00;102530.75;4919360;29;20110;-73
2023/01/25 00:58:46;;;;;;;8.20;6.43;;;;;;;-0.02;100.00;102533.38;4902321;29;20091;-73
2023/01/25 01:01:12;;;;;;;8.80;6.87;;;;;;;-0.08;100.00;102512.63;4918936;29;20075;-74
2023/01/25 01:03:38;;;;;;;8.63;6.17;;;;;;;-0.07;100.00;102503.88;4919278;29;20091;-74
2023/01/25 01:06:07;;;;;;;11.00;7.37;;;;;;;-0.03;100.00;102507.25;4919225;29;20260;-73
2023/01/25 01:08:35;;;;;;;11.82;7.57;;;;;;;0.00;100.00;102504.53;4918780;29;20079;-74
2023/01/25 01:11:02;;;;;;;13.15;7.95;;;;;;;-0.01;100.00;102502.81;4918961;29;20329;-74
2023/01/25 01:13:28;;;;;;;11.67;7.80;;;;;;;-0.05;100.00;102490.72;4918908;29;20035;-75
2023/01/25 01:15:55;;;;;;;10.90;7.83;;;;;;;-0.03;100.00;102488.91;4919299;29;20281;-74
2023/01/25 01:18:21;;;;;;;10.97;7.93;;;;;;;-0.10;100.00;102496.13;4920222;29;20325;-74
2023/01/25 01:20:51;;;;;;;11.40;8.00;;;;;;;-0.14;100.00;102475.34;4928463;29;20260;-73
2023/01/25 01:23:17;;;;;;;10.27;7.57;;;;;;;-0.15;100.00;102474.47;4936070;29;20295;-74
2023/01/25 01:25:43;;;;;;;10.90;7.63;;;;;;;-0.09;100.00;102481.25;4903356;29;20264;-73
2023/01/25 01:28:09;;;;;;;18.13;9.50;;;;;;;-0.13;100.00;102470.03;4920420;29;20743;-75
2023/01/25 01:30:36;;;;;;;9.07;6.87;;;;;;;-0.09;100.00;102489.97;4919903;29;20031;-73
2023/01/25 01:33:01;;;;;;;10.97;8.43;;;;;;;-0.16;100.00;102485.00;4919471;29;20039;-73
2023/01/25 01:35:30;;;;;;;10.03;7.60;;;;;;;-0.07;100.00;102482.06;4918549;29;20261;-75
2023/01/25 01:37:56;;;;;;;11.73;8.30;;;;;;;0.02;100.00;102480.91;4918461;29;20433;-73
2023/01/25 01:40:23;;;;;;;11.93;8.17;;;;;;;0.01;100.00;102468.72;4884872;29;20276;-73
2023/01/25 01:43:05;;;;;;;9.97;7.53;;;;;;;0.02;100.00;102466.06;4918165;29;20046;-73
2023/01/25 01:45:42;;;;;;;11.13;7.63;;;;;;;0.01;100.00;102459.09;4918604;29;20275;-73
2023/01/25 01:48:19;;;;;;;11.87;8.13;;;;;;;-0.08;100.00;102444.53;4918324;29;20759;-73
2023/01/25 01:50:46;;;;;;;12.00;7.80;;;;;;;-0.27;100.00;102416.44;4901692;29;20264;-72
2023/01/25 01:53:11;;;;;;;11.37;7.63;;;;;;;-0.12;100.00;102431.63;4917898;29;20280;-74
2023/01/25 01:55:38;;;;;;;10.60;7.77;;;;;;;-0.11;100.00;102434.19;4917971;29;20766;-74
2023/01/25 01:58:06;;;;;;;10.60;7.13;;;;;;;-0.17;100.00;102413.44;4901127;29;20028;-72
2023/01/25 02:00:35;;;;;;;12.15;7.35;;;;;;;-0.15;100.00;102403.78;4917935;29;20267;-74
2023/01/25 02:03:01;;;;;;;10.90;7.53;;;;;;;-0.18;100.00;102389.94;4917718;29;20075;-74
2023/01/25 02:05:31;;;;;;;9.47;6.93;;;;;;;-0.08;100.00;102391.31;4917757;29;20729;-73
2023/01/25 02:07:56;;;;;;;9.10;6.63;;;;;;;-0.07;100.00;102379.94;4917765;29;20054;-75
2023/01/25 02:10:24;;;;;;;11.60;7.50;;;;;;;-0.05;100.00;102370.25;4917671;29;20296;-73
2023/01/25 02:12:53;;;;;;;7.87;6.27;;;;;;;-0.02;100.00;102364.91;4917665;29;20275;-73
2023/01/25 02:15:19;;;;;;;8.65;6.18;;;;;;;-0.01;100.00;102356.97;4917646;29;20284;-77
2023/01/25 02:17:47;;;;;;;10.53;7.03;;;;;;;-0.06;100.00;102358.91;4917561;29;20036;-74
2023/01/25 02:20:31;;;;;;;9.32;6.63;;;;;;;-0.07;100.00;102362.44;4917442;29;20304;-74
2023/01/25 02:23:09;;;;;;;9.40;7.47;;;;;;;-0.04;100.00;102358.88;4917466;29;20630;-73
2023/01/25 02:25:35;;;;;;;7.75;5.90;;;;;;;-0.07;100.00;102346.75;4917718;29;20272;-73
2023/01/25 02:28:35;;;;;;;7.53;6.07;;;;;;;0.02;100.00;102356.03;4917783;29;20099;-74
2023/01/25 02:31:01;;;;;;;7.47;5.90;;;;;;;0.03;100.00;102349.03;4901979;29;20271;-73
2023/01/25 02:33:27;;;;;;;7.90;5.87;;;;;;;-0.08;100.00;102341.56;4919363;29;20354;-73
2023/01/25 02:36:11;;;;;;;5.90;5.30;;;;;;;0.03;100.00;102368.22;4918035;29;20028;-73
2023/01/25 02:38:51;;;;;;;6.87;5.30;;;;;;;-0.10;100.00;102349.47;4917306;29;20284;-73
2023/01/25 02:41:37;;;;;;;7.23;5.47;;;;;;;-0.05;100.00;102354.53;4917019;29;20272;-75
2023/01/25 02:44:12;;;;;;;7.60;5.10;;;;;;;-0.05;100.00;102354.53;4917298;29;20300;-74
2023/01/25 02:46:39;;;;;;;5.87;5.00;;;;;;;-0.08;100.00;102352.88;4917252;29;20726;-73
2023/01/25 02:49:06;;;;;;;4.90;4.40;;;;;;;-0.11;100.00;102345.16;4917424;29;20363;-75
2023/01/25 02:51:37;;;;;;;5.63;4.77;;;;;;;-0.15;100.00;102347.94;4917163;29;20371;-74
2023/01/25 02:54:05;;;;;;;5.43;4.43;;;;;;;-0.41;100.00;102297.34;4917385;29;20288;-73
2023/01/25 02:56:30;;;;;;;6.80;6.10;;;;;;;-0.18;100.00;102337.56;4900074;29;20355;-75
2023/01/25 02:58:56;;;;;;;6.83;6.13;;;;;;;-0.17;100.00;102347.13;4916985;29;20876;-73
2023/01/25 03:01:22;;;;;;;5.43;4.50;;;;;;;-0.23;100.00;102361.31;4916712;29;20040;-73
2023/01/25 03:03:47;;;;;;;6.90;5.03;;;;;;;-0.23;100.00;102355.22;4916897;29;20032;-74
2023/01/25 03:06:13;;;;;;;5.27;4.73;;;;;;;-0.28;100.00;102346.69;4916542;29;20084;-72
2023/01/25 03:08:39;;;;;;;6.00;4.97;;;;;;;-0.28;100.00;102330.97;4900081;29;20036;-74
2023/01/25 03:11:05;;;;;;;5.30;4.63;;;;;;;-0.25;100.00;102330.84;4916784;29;20035;-73
2023/01/25 03:13:32;;;;;;;5.93;4.40;;;;;;;-0.17;100.00;102328.81;4916541;29;20488;-74
2023/01/25 03:16:04;;;;;;;5.30;4.50;;;;;;;-0.14;100.00;102324.31;4916523;29;20370;-73
2023/01/25 03:18:29;;;;;;;5.50;5.00;;;;;;;-0.12;100.00;102334.72;4916822;29;20279;-73
2023/01/25 03:20:56;;;;;;;4.20;3.80;;;;;;;-0.10;100.00;102331.13;4916977;29;20268;-74
2023/01/25 03:23:21;;;;;;;4.20;3.80;;;;;;;-0.21;100.00;102316.75;4916133;29;20040;-74
2023/01/25 03:25:47;;;;;;;5.30;4.57;;;;;;;-0.09;100.00;102332.84;4916589;29;20279;-75
2023/01/25 03:28:12;;;;;;;4.67;3.67;;;;;;;-0.16;100.00;102320.03;4916500;29;20028;-74
2023/01/25 03:30:38;;;;;;;4.17;3.57;;;;;;;-0.10;100.00;102335.53;4899617;29;20032;-73
2023/01/25 03:33:03;;;;;;;4.00;3.60;;;;;;;-0.05;100.00;102339.66;4916147;29;20028;-73
2023/01/25 03:35:29;;;;;;;4.77;3.80;;;;;;;-0.04;100.00;102330.06;4916289;29;20055;-74
2023/01/25 03:37:54;;;;;;;5.30;4.00;;;;;;;-0.09;100.00;102311.91;4899544;29;20035;-73
2023/01/25 03:40:20;;;;;;;7.50;4.17;;;;;;;-0.17;100.00;102324.41;4899527;29;20031;-72
2023/01/25 03:42:45;;;;;;;5.43;4.77;;;;;;;-0.15;100.00;102334.84;4916208;29;20032;-73
2023/01/25 03:45:13;;;;;;;5.30;4.30;;;;;;;-0.28;100.00;102304.78;4916047;29;20044;-73
2023/01/25 03:47:39;;;;;;;4.93;4.43;;;;;;;-0.30;100.00;102296.97;4916767;29;20152;-74
2023/01/25 03:50:06;;;;;;;5.43;4.67;;;;;;;-0.16;100.00;102310.41;4917232;29;20314;-72
2023/01/25 03:52:37;;;;;;;4.43;4.03;;;;;;;-0.19;100.00;102304.44;4916450;29;20363;-73
2023/01/25 03:55:04;;;;;;;5.13;4.63;;;;;;;-0.21;100.00;102291.41;4916586;29;20264;-73
2023/01/25 03:57:29;;;;;;;5.00;3.83;;;;;;;-0.24;100.00;102273.19;4916446;29;20280;-72
2023/01/25 03:59:55;;;;;;;6.90;4.50;;;;;;;-0.28;100.00;102266.38;4899784;29;20759;-76
2023/01/25 04:02:20;;;;;;;6.30;4.43;;;;;;;-0.33;100.00;102245.56;4916725;29;20030;-76
2023/01/25 04:04:46;;;;;;;7.27;4.80;;;;;;;-0.40;100.00;102238.84;4920085;29;20032;-76
2023/01/25 04:07:11;;;;;;;5.03;3.70;;;;;;;-0.44;100.00;102221.56;4920667;29;20035;-75
2023/01/25 04:09:37;;;;;;;5.90;4.37;;;;;;;-0.44;100.00;102226.81;4920616;29;20028;-74
2023/01/25 04:12:02;;;;;;;6.27;5.10;;;;;;;-0.42;100.00;102214.50;4920234;29;20552;-76
2023/01/25 04:14:29;;;;;;;6.63;4.77;;;;;;;-0.46;100.00;102201.59;4920148;29;20060;-74
2023/01/25 04:16:54;;;;;;;6.07;4.40;;;;;;;-0.43;100.00;102199.72;4920699;29;20040;-76
2023/01/25 04:19:20;;;;;;;7.50;5.43;;;;;;;-0.41;100.00;102191.81;4904061;29;20302;-76
2023/01/25 04:21:45;;;;;;;7.63;5.00;;;;;;;-0.35;100.00;102202.88;4920361;29;20082;-74
2023/01/25 04:24:11;;;;;;;4.80;4.40;;;;;;;-0.43;100.00;102201.47;4919585;29;20542;-75
2023/01/25 04:26:36;;;;;;;5.80;4.03;;;;;;;-0.39;100.00;102206.53;4920675;29;20115;-76
2023/01/25 04:29:02;;;;;;;4.17;3.77;;;;;;;-0.33;100.00;102208.91;4920060;29;20036;-75
2023/01/25 04:31:28;;;;;;;6.77;4.60;;;;;;;-0.34;100.00;102201.97;4919752;29;20028;-76
2023/01/25 04:33:54;;;;;;;7.07;4.03;;;;;;;-0.34;100.00;102196.75;4919932;29;20020;-78
2023/01/25 04:36:20;;;;;;;5.07;4.57;;;;;;;-0.29;100.00;102203.56;4929146;29;20047;-77
2023/01/25 04:38:49;;;;;;;4.07;3.63;;;;;;;-0.29;100.00;102193.94;4921550;29;20263;-76
2023/01/25 04:41:25;;;;;;;5.05;3.92;;;;;;;-0.35;100.00;102195.03;4920760;29;20023;-76
2023/01/25 04:44:04;;;;;;;5.60;4.97;;;;;;;-0.50;100.00;102139.81;4904134;29;20035;-76
2023/01/25 04:46:48;;;;;;;5.80;4.00;;;;;;;-0.26;100.00;102180.78;4905426;29;20042;-78
2023/01/25 04:49:23;;;;;;;4.15;3.75;;;;;;;-0.36;100.00;102172.38;4904804;29;20623;-76
2023/01/25 04:51:56;;;;;;;4.57;3.70;;;;;;;-0.34;100.00;102154.84;4904995;29;20092;-76
2023/01/25 04:54:25;;;;;;;6.93;4.90;;;;;;;-0.32;100.00;102146.94;4904184;29;20328;-76
2023/01/25 04:56:50;;;;;;;5.90;4.13;;;;;;;-0.38;100.00;102132.34;4939392;29;20362;-75
2023/01/25 04:59:16;;;;;;;4.93;3.30;;;;;;;-0.22;100.00;102148.31;4943445;29;20031;-76
2023/01/25 05:01:49;;;;;;;4.40;3.83;;;;;;;-0.20;100.00;102149.09;4937874;29;20095;-78
2023/01/25 05:04:18;;;;;;;5.20;3.60;;;;;;;-0.21;100.00;102143.94;4913945;29;20295;-75
2023/01/25 05:06:44;;;;;;;8.30;5.00;;;;;;;-0.30;100.00;102129.41;4944496;29;20619;-76
2023/01/25 05:09:09;;;;;;;4.67;4.17;;;;;;;-0.21;100.00;102138.69;4951179;29;20024;-76
2023/01/25 05:11:35;;;;;;;4.07;3.53;;;;;;;-0.25;100.00;102131.88;4951645;29;20062;-76
2023/01/25 05:14:00;;;;;;;3.80;3.40;;;;;;;-0.34;100.00;102119.97;4949685;29;20472;-75
2023/01/25 05:16:28;;;;;;;3.57;3.27;;;;;;;-0.18;100.00;102139.44;4939278;29;20059;-76
2023/01/25 05:18:54;;;;;;;6.60;3.37;;;;;;;-0.23;100.00;102132.66;4937883;29;20040;-75
2023/01/25 05:24:04;;;;;;;3.67;3.37;;;;;;;-0.22;100.00;102137.00;4937953;29;20326;-78
2023/01/25 05:29:13;;;;;;;4.03;3.63;;;;;;;-0.22;100.00;102126.53;4920860;29;20031;-75
2023/01/25 05:31:38;;;;;;;3.13;2.83;;;;;;;-0.34;100.00;102107.75;4937402;29;20376;-76
2023/01/25 05:34:04;;;;;;;3.33;3.03;;;;;;;-0.23;100.00;102120.44;4937345;29;20027;-74
2023/01/25 05:36:29;;;;;;;4.60;3.57;;;;;;;-0.26;100.00;102112.69;4938074;29;20032;-74
2023/01/25 05:38:55;;;;;;;3.67;3.30;;;;;;;-0.27;100.00;102112.75;4940694;29;20039;-71
2023/01/25 05:41:21;;;;;;;3.97;3.13;;;;;;;-0.33;100.00;102103.34;4938966;29;20035;-73
2023/01/25 05:43:47;;;;;;;4.00;3.47;;;;;;;-0.24;100.00;102123.09;4937508;29;20039;-75
2023/01/25 05:46:13;;;;;;;4.50;3.43;;;;;;;-0.23;100.00;102115.19;4938073;29;20032;-76
2023/01/25 05:48:39;;;;;;;3.20;2.90;;;;;;;-0.20;100.00;102116.84;4936660;29;20314;-74
2023/01/25 05:51:04;;;;;;;3.47;2.87;;;;;;;-0.39;100.00;102087.91;4937163;29;20039;-75
2023/01/25 05:53:30;;;;;;;4.00;3.20;;;;;;;-0.28;100.00;102100.59;4938586;29;20027;-71
2023/01/25 05:55:56;;;;;;;3.27;2.97;;;;;;;-0.20;100.00;102114.22;4940032;29;20027;-73
2023/01/25 05:58:21;;;;;;;3.73;3.43;;;;;;;-0.23;100.00;102104.72;4937674;29;20386;-73
2023/01/25 06:00:47;;;;;;;4.43;4.03;;;;;;;-0.20;100.00;102106.38;4937568;29;20036;-72
2023/01/25 06:03:12;;;;;;;3.23;2.93;;;;;;;-0.21;100.00;102102.03;4938153;29;20035;-75
2023/01/25 06:05:38;;;;;;;5.07;3.43;;;;;;;-0.19;100.00;102097.59;4927431;29;20032;-75
2023/01/25 06:08:03;;;;;;;3.67;3.37;;;;;;;-0.21;100.00;102096.81;4931043;29;20028;-73
2023/01/25 06:10:29;;;;;;;4.23;3.83;;;;;;;-0.21;100.00;102096.81;4949984;29;20012;-74
2023/01/25 06:12:58;;;;;;;5.40;3.63;;;;;;;-0.24;100.00;102091.69;4949177;29;20055;-71
2023/01/25 06:15:26;;;;;;;4.18;3.78;;;;;;;-0.21;100.00;102091.56;4947711;29;20054;-74
2023/01/25 06:17:55;;;;;;;4.70;3.30;;;;;;;-0.22;100.00;102068.91;4938768;29;20044;-76
2023/01/25 06:20:20;;;;;;;4.38;3.97;;;;;;;-0.24;100.00;102055.03;4937147;29;20975;-73
2023/01/25 06:22:50;;;;;;;4.03;3.27;;;;;;;-0.21;100.00;102060.16;4936779;29;20049;-73
2023/01/25 06:25:15;;;;;;;5.07;4.03;;;;;;;-0.21;100.00;102060.16;4941357;29;20543;-76
2023/01/25 06:27:41;;;;;;;3.57;3.27;;;;;;;-0.20;100.00;102072.31;4941813;29;20291;-79
2023/01/25 06:30:07;;;;;;;4.87;3.20;;;;;;;-0.16;100.00;102068.66;4919407;29;20042;-74
2023/01/25 06:32:33;;;;;;;4.43;3.20;;;;;;;-0.14;100.00;102066.84;4936263;29;20083;-72
2023/01/25 06:34:58;;;;;;;3.63;3.33;;;;;;;-0.15;100.00;102062.50;4936389;29;20263;-70
2023/01/25 06:37:24;;;;;;;3.70;3.30;;;;;;;-0.18;100.00;102049.56;4936870;29;20035;-72
2023/01/25 06:39:49;;;;;;;6.33;3.50;;;;;;;-0.22;100.00;102054.06;4936065;29;20118;-72
2023/01/25 06:42:15;;;;;;;3.83;3.47;;;;;;;-0.22;100.00;102058.44;4919157;29;20034;-73
2023/01/25 06:44:40;;;;;;;4.07;3.67;;;;;;;-0.29;100.00;102046.50;4935876;29;20107;-72
2023/01/25 06:47:08;;;;;;;4.73;3.37;;;;;;;-0.24;100.00;102044.56;4938313;29;20107;-72
2023/01/25 06:49:33;;;;;;;4.33;3.60;;;;;;;-0.23;100.00;102052.38;4940003;29;20075;-72
2023/01/25 06:52:00;;;;;;;5.40;3.43;;;;;;;-0.26;100.00;102043.78;4919848;29;20259;-72
2023/01/25 06:54:26;;;;;;;5.70;3.97;;;;;;;-0.23;100.00;102035.81;4935692;29;20024;-70
2023/01/25 06:56:51;;;;;;;3.70;3.40;;;;;;;-0.29;100.00;102015.09;4935882;29;20268;-70
2023/01/25 06:59:17;;;;;;;6.87;4.33;;;;;;;-0.27;100.00;102011.50;4924453;29;20024;-72
2023/01/25 07:01:43;;;;;;;5.50;3.60;;;;;;;-0.25;100.00;101995.75;4933425;29;20047;-71
2023/01/25 07:04:13;;;;;;;4.27;3.73;;;;;;;-0.21;100.00;101998.16;4917615;29;20387;-73
2023/01/25 07:06:39;;;;;;;5.20;3.63;;;;;;;-0.29;100.00;101983.66;4933630;29;20705;-72
2023/01/25 07:09:08;;;;;;;5.20;3.87;;;;;;;-0.19;100.00;101990.25;4935076;29;20295;-72
2023/01/25 07:11:39;;;;;;;4.00;3.60;;;;;;;-0.15;100.00;101991.81;4923579;29;20299;-70
2023/01/25 07:14:05;;;;;;;4.57;3.30;;;;;;;-0.16;100.00;101980.50;4935929;29;20251;-71
2023/01/25 07:16:35;;;;;;;4.70;3.40;;;;;;;-0.07;100.00;101976.63;4918611;29;20047;-70
2023/01/25 07:19:12;;;;;;;3.40;3.10;;;;;;;0.00;100.00;101967.63;4935580;29;20472;-69
2023/01/25 07:21:37;;;;;;;3.70;3.00;;;;;;;0.05;100.00;101954.31;4935445;29;20256;-71
2023/01/25 07:24:04;;;;;;;3.97;3.57;;;;;;;0.07;100.00;101955.97;4935080;29;20294;-73
2023/01/25 07:26:30;;;;;;;3.20;2.90;;;;;;;0.03;100.00;101954.38;4935133;29;20024;-71
2023/01/25 07:28:57;;;;;;;3.33;3.03;;;;;;;0.15;100.00;101956.47;4934934;29;20679;-71
2023/01/25 07:31:23;;;;;;;3.60;3.30;;;;;;;0.16;100.00;101944.22;4935263;29;20263;-71
2023/01/25 07:33:55;;;;;;;3.97;3.10;;;;;;;0.14;100.00;101946.06;4935069;29;20268;-70
2023/01/25 07:36:21;;;;;;;3.53;3.23;;;;;;;0.20;100.00;101938.78;4934853;29;20032;-72
2023/01/25 07:38:52;;;;;;;3.03;2.53;;;;;;;0.24;100.00;101935.09;4917251;29;20613;-71
2023/01/25 07:41:17;;;;;;;3.90;3.03;;;;;;;0.28;100.00;101928.78;4934810;29;20744;-70
2023/01/25 07:43:43;;;;;;;4.73;3.70;;;;;;;0.32;100.00;101944.41;4935780;29;20291;-73
2023/01/25 07:46:11;;;;;;;3.43;3.10;;;;;;;-0.06;100.00;101881.44;4935857;29;20034;-76
2023/01/25 07:48:44;;;;;;;4.03;3.40;;;;;;;0.24;100.00;101926.38;4918245;29;20027;-74
2023/01/25 07:51:22;;;;;;;4.10;3.70;;;;;;;0.33;100.00;101933.84;4935281;29;20810;-74
2023/01/25 07:54:03;;;;;;;3.57;2.90;;;;;;;0.33;100.00;101935.63;4918138;29;20271;-74
2023/01/25 07:59:56;;;;;;;3.53;3.23;;;;;;;-0.09;100.00;101863.25;4935427;29;20270;-78
2023/01/25 08:02:21;;;;;;;6.07;3.30;;;;;;;0.13;100.00;101908.53;4918831;29;20272;-75
2023/01/25 08:04:57;;;;;;;3.43;3.07;;;;;;;0.20;100.00;101915.19;4934647;29;20493;-75
2023/01/25 08:07:51;;;;;;;3.63;3.10;;;;;;;0.08;100.00;101873.84;4901165;29;20044;-78
2023/01/25 08:10:17;;;;;;;4.13;3.27;;;;;;;0.17;100.00;101888.28;4952557;29;20259;-76
2023/01/25 08:12:46;;;;;;;4.70;3.77;;;;;;;0.15;100.00;101877.03;4958471;29;20299;-73
2023/01/25 08:15:13;;;;;;;3.80;3.20;;;;;;;0.35;100.00;101910.19;4957762;29;20048;-72
2023/01/25 08:17:40;;;;;;;4.47;3.58;;;;;;;0.37;100.00;101900.50;4951555;29;20031;-73
2023/01/25 08:20:06;;;;;;;5.80;4.00;;;;;;;0.45;100.00;101901.00;4936997;29;20039;-71
2023/01/25 08:22:32;;;;;;;7.90;5.30;;;;;;;0.30;100.00;101874.59;4918324;29;20570;-73
2023/01/25 08:24:59;;;;;;;6.43;3.80;;;;;;;0.40;100.00;101885.47;4938277;29;20258;-73
2023/01/25 08:27:27;;;;;;;4.50;3.43;;;;;;;0.36;100.00;101875.22;4937321;29;20122;-74
2023/01/25 08:29:55;;;;;;;5.27;4.00;;;;;;;0.27;100.00;101848.50;4935456;29;20267;-75
2023/01/25 08:32:21;;;;;;;6.20;4.80;;;;;;;0.36;100.00;101862.13;4937355;29;20315;-74
2023/01/25 08:34:47;;;;;;;4.67;3.67;;;;;;;0.42;100.00;101872.31;4921948;29;20376;-75
2023/01/25 08:37:12;;;;;;;4.03;3.70;;;;;;;0.36;100.00;101851.63;4936579;29;20020;-74
2023/01/25 08:39:38;;;;;;;6.27;4.07;;;;;;;0.48;100.00;101861.53;4934777;29;20527;-75
2023/01/25 08:42:04;;;;;;;4.07;3.67;;;;;;;0.45;100.00;101859.06;4934593;29;20035;-73
2023/01/25 08:44:29;;;;;;;5.10;4.00;;;;;;;0.37;100.00;101838.47;4933781;29;20176;-73
2023/01/25 08:58:36;;;;;;;5.47;3.83;;;;;;;0.56;100.00;101849.75;4938897;29;20275;-75
2023/01/25 09:01:51;;;;;;;4.07;3.67;;;;;;;0.61;100.00;101844.34;4921880;29;20288;-81
2023/01/25 09:08:56;;;;;;;6.83;4.23;;;;;;;0.15;100.00;101764.38;4924515;29;20291;-77
2023/01/25 09:11:25;;;;;;;4.50;3.60;;;;;;;0.16;100.00;101753.84;4818117;29;20438;-79
2023/01/25 09:14:31;;;;;;;5.78;4.07;;;;;;;0.54;100.00;101824.53;4860473;29;20271;-80
2023/01/25 09:40:56;;;;;;;5.03;4.13;;;;;;;0.64;100.00;101768.16;5362073;23;20303;-79
2023/01/25 09:44:07;;;;;;;5.30;3.93;;;;;;;0.63;100.00;101742.88;4941800;29;20292;-75
2023/01/25 09:47:13;;;;;;;3.70;3.37;;;;;;;0.69;100.00;101749.56;4921683;29;20280;-79
2023/01/25 09:49:59;;;;;;;5.13;3.87;;;;;;;0.70;100.00;101753.91;4848437;29;20279;-77
2023/01/25 09:52:42;;;;;;;5.23;4.57;;;;;;;0.65;100.00;101743.63;4935968;29;20278;-76
2023/01/25 09:55:14;;;;;;;5.20;3.80;;;;;;;0.62;100.00;101743.78;4938017;29;20255;-76
2023/01/25 09:57:41;;;;;;;5.30;3.70;;;;;;;0.57;100.00;101728.25;4921191;29;20720;-78
2023/01/25 10:00:37;;;;;;;4.27;3.80;;;;;;;0.58;100.00;101734.38;4920625;29;20374;-77
2023/01/25 10:03:24;;;;;;;5.60;3.93;;;;;;;0.56;100.00;101715.22;4920764;29;20323;-74
2023/01/25 10:05:53;;;;;;;4.40;3.83;;;;;;;0.51;100.00;101694.50;4920418;29;20350;-74
2023/01/25 10:08:42;;;;;;;;;;;;;;;0.59;100.00;101713.34;4938005;29;20291;-78
2023/01/25 10:11:15;;;;;;;;;;;;;;;0.65;100.00;101706.94;4917784;29;20407;-77
2023/01/25 10:13:42;;;;;;;5.50;4.50;;;;;;;0.63;100.00;101687.81;4937700;29;19917;-78
2023/01/25 10:16:30;;;;;;;3.87;3.50;;;;;;;0.71;100.00;101695.28;4937944;29;20786;-75
2023/01/25 10:19:21;;;;;;;4.83;4.13;;;;;;;0.72;100.00;101684.72;4939960;29;20355;-75
2023/01/25 10:22:10;;;;;;;4.63;3.87;;;;;;;0.63;100.00;101682.56;4909937;29;20674;-76
2023/01/25 10:25:13;;;;;;;5.53;3.57;;;;;;;0.70;100.00;101689.19;4942400;29;20291;-77
2023/01/25 10:27:53;;;;;;;4.33;3.90;;;;;;;0.66;100.00;101677.16;4940688;29;20260;-72
2023/01/25 10:30:31;;;;;;;6.77;3.70;;;;;;;0.60;100.00;101682.72;4940576;29;20265;-76
2023/01/25 10:33:06;;;;;;;4.30;3.90;;;;;;;0.63;100.00;101664.22;4942483;29;20271;-77
2023/01/25 10:35:36;;;;;;;5.23;4.33;;;;;;;0.60;100.00;101672.25;4939316;29;20284;-82
2023/01/25 10:38:20;;;;;;;5.83;4.40;;;;;;;0.54;100.00;101662.88;4937707;29;20259;-75
2023/01/25 10:40:52;;;;;;;6.00;4.60;;;;;;;0.57;100.00;101651.41;4936875;29;20286;-75
2023/01/25 10:43:33;;;;;;;4.17;3.77;;;;;;;0.72;100.00;101661.13;4938662;29;20332;-80
2023/01/25 10:46:34;;;;;;;9.63;4.07;;;;;;;0.77;100.00;101651.25;4921801;29;20616;-76
2023/01/25 10:49:25;;;;;;;5.03;3.63;;;;;;;0.79;100.00;101651.16;4859754;29;20346;-77
2023/01/25 10:52:38;;;;;;;4.13;3.73;;;;;;;0.64;100.00;101621.34;4933182;29;20314;-79
2023/01/25 10:58:37;;;;;;;4.50;3.10;;;;;;;0.73;100.00;101625.28;4910244;29;20282;-72
2023/01/25 11:05:37;;;;;;;5.00;4.13;;;;;;;0.89;100.00;101637.53;4919222;29;20795;-77
2023/01/25 11:08:33;;;;;;;4.87;2.87;;;;;;;0.87;100.00;101639.38;4918989;29;20296;-77
2023/01/25 11:11:11;;;;;;;5.17;4.23;;;;;;;0.84;100.00;101633.41;4930179;29;20286;-78
2023/01/25 11:13:40;;;;;;;4.30;3.80;;;;;;;0.86;100.00;101642.06;4945162;29;20339;-76
2023/01/25 11:16:18;;;;;;;5.07;3.73;;;;;;;0.83;100.00;101616.84;4925101;29;20621;-78
2023/01/25 11:18:52;;;;;;;5.47;3.33;;;;;;;0.91;100.00;101619.94;4936849;29;20271;-79
2023/01/25 11:21:24;;;;;;;3.47;3.17;;;;;;;0.96;100.00;101603.94;4936918;29;20051;-82
2023/01/25 11:24:24;;;;;;;5.33;3.60;;;;;;;1.03;100.00;101607.09;4937198;29;20398;-79
2023/01/25 11:26:50;;;;;;;3.83;3.20;;;;;;;1.04;100.00;101599.13;4938237;29;20660;-79
2023/01/25 11:29:18;;;;;;;7.10;3.83;;;;;;;1.02;100.00;101595.75;4942136;29;20255;-76
2023/01/25 11:32:14;;;;;;;3.70;3.40;;;;;;;1.05;100.00;101610.47;4922909;29;20491;-77
2023/01/25 11:34:40;;;;;;;4.80;2.73;;;;;;;0.93;100.00;101583.13;4942024;29;20028;-76
2023/01/25 11:37:29;;;;;;;6.03;3.70;;;;;;;1.02;100.00;101600.16;4937900;29;20269;-79
2023/01/25 11:40:17;;;;;;;3.37;3.07;;;;;;;0.98;100.00;101578.50;4941777;29;20048;-79
2023/01/25 11:43:15;;;;;;;5.43;3.87;;;;;;;1.10;100.00;101590.94;4939056;29;20299;-75
2023/01/25 11:45:48;;;;;;;5.57;3.17;;;;;;;1.16;100.00;101587.16;4937595;29;20252;-78
2023/01/25 11:48:42;;;;;;;4.13;3.73;;;;;;;1.14;100.00;101591.63;4922182;29;20260;-81
2023/01/25 11:51:23;;;;;;;5.20;3.37;;;;;;;1.17;100.00;101581.00;4939527;29;20350;-84
2023/01/25 11:54:09;;;;;;;3.87;3.27;;;;;;;1.15;100.00;101573.16;4931440;29;20379;-74
2023/01/25 11:57:06;;;;;;;3.83;3.47;;;;;;;1.20;100.00;101567.69;4938004;29;20267;-75
2023/01/25 11:59:53;;;;;;;5.83;4.00;;;;;;;1.17;100.00;101565.25;4929475;29;20279;-79
2023/01/25 12:02:38;;;;;;;5.13;3.23;;;;;;;1.12;100.00;101554.13;4914718;29;20348;-76
2023/01/25 12:05:32;;;;;;;5.67;3.43;;;;;;;1.17;100.00;101555.59;4931144;29;20304;-78
2023/01/25 12:08:10;;;;;;;3.43;3.00;;;;;;;1.15;100.00;101559.22;4909890;29;20288;-74
2023/01/25 12:11:06;;;;;;;3.47;3.00;;;;;;;1.20;100.00;101559.84;4940699;29;20279;-77
2023/01/25 12:13:50;;;;;;;5.10;3.80;;;;;;;1.21;100.00;101556.28;4900456;29;20131;-80
2023/01/25 12:16:47;;;;;;;5.03;3.20;;;;;;;1.19;100.00;101558.97;4900392;29;20268;-81
2023/01/25 12:19:15;;;;;;;4.33;3.93;;;;;;;1.23;100.00;101546.53;4901547;29;20748;-80
2023/01/25 12:22:02;;;;;;;3.83;3.47;;;;;;;1.13;100.00;101550.56;4924087;29;20263;-82
2023/01/25 12:24:35;;;;;;;3.60;3.23;;;;;;;1.15;100.00;101549.56;4938562;29;20035;-80
2023/01/25 12:27:12;;;;;;;3.63;2.80;;;;;;;1.14;100.00;101547.88;4943742;29;20264;-77
2023/01/25 12:29:57;;;;;;;4.20;3.60;;;;;;;1.20;100.00;101537.06;4943182;29;20256;-77
2023/01/25 12:32:46;;;;;;;4.80;3.30;;;;;;;1.13;100.00;101513.84;4940826;29;20052;-80
2023/01/25 12:35:36;;;;;;;8.07;3.55;;;;;;;1.17;100.00;101520.66;4922289;29;20260;-76
2023/01/25 12:38:11;;;;;;;3.93;2.97;;;;;;;1.17;100.00;101537.22;4939380;29;20051;-78